Novo Progresso, Brazil
Current Conditions -  °F | °C
As of 12:00 PM on Monday 24 Nov 2014 (Local Time) from SBAT Reporting Station
Few Clouds Few Clouds  
Wind Chill: 93°   Ceiling: Unl
Heat Index: 105°   Visibility: 6mi
Dew Point: 75°   Wind: 6mph
Humidity: 56%   Direction: 60°ENE
Pressure: 29.91"   Gusts: NA
Location:  7.15°S, 55.38°W
Report Text: SBAT 241500Z 06005KT 9999 FEW025 34/24 Q1013
Loading
Personal Weather Stations






























Interactive Weather Map New forecast layout! Learn more

10-Day Weather Forecast

Advertisements
Track Severe Weather on mobile